Time;durP1;ratioP1;P1;durP2;ratioP2;P2;SDS_P1;SDS_P2;PMS_P1;PMS_P2;Temp;Humidity;BMP_temperature;BMP_pressure;BME280_temperature;BME280_humidity;BME280_pressure;Samples;Min_cycle;Max_cycle;Signal;HPM_P1;HPM_P2
2023/03/24 00:00:40;;;;;;;;;;;;;;;5.63;79.45;95317.63;5055141;28;1044;-64
2023/03/24 00:03:07;;;;;;;;;;;;;;;5.65;80.27;95320.13;5055773;28;1051;-64
2023/03/24 00:05:33;;;;;;;;;;;;;;;5.60;78.98;95322.34;5055531;28;969;-64
2023/03/24 00:08:01;;;;;;;;;;;;;;;5.59;78.90;95323.28;5054602;28;1012;-64
2023/03/24 00:10:29;;;;;;;;;;;;;;;5.43;79.35;95316.59;5055670;28;1060;-63
2023/03/24 00:12:57;;;;;;;;;;;;;;;5.39;79.43;95319.66;5055500;28;1053;-64
2023/03/24 00:15:23;;;;;;;;;;;;;;;5.13;80.36;95311.16;5055287;28;1037;-64
2023/03/24 00:17:50;;;;;;;;;;;;;;;5.03;81.01;95319.00;5055577;28;1910;-64
2023/03/24 00:20:17;;;;;;;;;;;;;;;5.07;80.85;95320.44;5055210;28;997;-63
2023/03/24 00:22:48;;;;;;;;;;;;;;;5.12;80.55;95323.53;5055517;28;1017;-63
2023/03/24 00:25:15;;;;;;;;;;;;;;;4.99;80.20;95322.84;5055150;28;1610;-63
2023/03/24 00:27:43;;;;;;;;;;;;;;;4.73;81.12;95330.22;5055195;28;1044;-63
2023/03/24 00:30:10;;;;;;;;;;;;;;;4.78;82.01;95325.38;5055436;28;1020;-63
2023/03/24 00:32:37;;;;;;;;;;;;;;;4.94;80.87;95330.34;5054198;28;965;-63
2023/03/24 00:35:05;;;;;;;;;;;;;;;5.00;80.46;95325.38;5053751;28;1105;-63
2023/03/24 00:37:31;;;;;;;;;;;;;;;4.81;81.17;95312.75;5054837;28;1905;-63
2023/03/24 00:39:58;;;;;;;;;;;;;;;4.56;81.89;95315.66;5054865;28;1033;-63
2023/03/24 00:42:24;;;;;;;;;;;;;;;4.53;82.36;95318.53;5054830;28;1046;-63
2023/03/24 00:44:52;;;;;;;;;;;;;;;4.64;81.65;95310.59;5055024;28;981;-63
2023/03/24 00:47:25;;;;;;;;;;;;;;;4.59;82.18;95310.97;5055070;28;977;-63
2023/03/24 00:49:52;;;;;;;;;;;;;;;4.52;82.39;95309.75;5054805;28;1017;-63
2023/03/24 00:52:19;;;;;;;;;;;;;;;4.68;82.08;95304.91;5054632;28;1034;-63
2023/03/24 00:54:47;;;;;;;;;;;;;;;4.95;81.33;95309.03;5053722;28;962;-63
2023/03/24 00:57:20;;;;;;;;;;;;;;;4.78;80.99;95301.53;5054595;28;1988;-63
2023/03/24 00:59:47;;;;;;;;;;;;;;;4.83;81.91;95302.03;5054591;28;1049;-63
2023/03/24 01:02:14;;;;;;;;;;;;;;;4.88;81.45;95297.22;5054748;28;989;-63
2023/03/24 01:04:40;;;;;;;;;;;;;;;4.97;81.14;95303.56;5054361;28;1064;-63
2023/03/24 01:07:09;;;;;;;;;;;;;;;4.93;80.23;95302.97;5053282;28;1037;-63
2023/03/24 01:09:36;;;;;;;;;;;;;;;4.62;81.27;95294.00;5054573;28;1268;-63
2023/03/24 01:12:03;;;;;;;;;;;;;;;4.42;82.45;95296.41;5054354;28;1033;-63
2023/03/24 01:14:30;;;;;;;;;;;;;;;4.40;82.53;95293.03;5054509;28;1035;-63
2023/03/24 01:16:56;;;;;;;;;;;;;;;4.28;83.06;95300.09;5054249;28;1914;-63
2023/03/24 01:19:24;;;;;;;;;;;;;;;4.29;83.69;95296.50;5053967;28;1061;-63
2023/03/24 01:21:53;;;;;;;;;;;;;;;4.53;83.46;95295.53;5054165;28;1045;-63
2023/03/24 01:24:24;;;;;;;;;;;;;;;4.70;82.33;95296.88;5053958;28;1603;-63
2023/03/24 01:26:51;;;;;;;;;;;;;;;4.91;81.94;95296.13;5053994;28;1078;-63
2023/03/24 01:29:17;;;;;;;;;;;;;;;4.97;81.43;95295.63;5054233;28;1204;-64
2023/03/24 01:31:43;;;;;;;;;;;;;;;4.91;79.71;95293.47;5053032;28;1086;-64
2023/03/24 01:34:09;;;;;;;;;;;;;;;4.31;81.34;95296.41;5054151;28;1029;-63
2023/03/24 01:36:35;;;;;;;;;;;;;;;4.19;82.90;95294.69;5053796;28;1985;-63
2023/03/24 01:39:02;;;;;;;;;;;;;;;4.43;83.22;95295.44;5053797;28;1148;-63
2023/03/24 01:41:33;;;;;;;;;;;;;;;4.57;82.02;95293.50;5053825;28;1072;-63
2023/03/24 01:43:59;;;;;;;;;;;;;;;4.41;80.99;95299.16;5052581;28;1061;-64
2023/03/24 01:46:28;;;;;;;;;;;;;;;4.09;81.95;95298.03;5053548;28;981;-63
2023/03/24 01:48:54;;;;;;;;;;;;;;;3.79;84.37;95289.81;5052613;28;1120;-63
2023/03/24 01:51:20;;;;;;;;;;;;;;;3.90;84.06;95292.47;5053494;28;1049;-63
2023/03/24 01:53:51;;;;;;;;;;;;;;;4.14;83.63;95289.75;5053614;28;1041;-63
2023/03/24 01:56:18;;;;;;;;;;;;;;;4.27;83.17;95295.78;5053502;28;1997;-64
2023/03/24 01:58:46;;;;;;;;;;;;;;;4.13;83.70;95297.81;5053356;28;1101;-64
2023/03/24 02:01:13;;;;;;;;;;;;;;;4.20;83.27;95304.31;5053716;28;969;-63
2023/03/24 02:03:40;;;;;;;;;;;;;;;4.01;83.48;95295.16;5053784;28;1097;-63
2023/03/24 02:06:07;;;;;;;;;;;;;;;4.04;83.61;95302.88;5053258;28;1421;-63
2023/03/24 02:08:37;;;;;;;;;;;;;;;4.25;83.00;95299.50;5053398;28;1001;-63
2023/03/24 02:11:04;;;;;;;;;;;;;;;4.28;82.42;95302.75;5053435;28;1013;-63
2023/03/24 02:13:30;;;;;;;;;;;;;;;4.06;82.87;95300.06;5053191;28;1021;-63
2023/03/24 02:16:08;;;;;;;;;;;;;;;4.10;82.93;95307.69;5052019;28;1999;-61
2023/03/24 02:19:03;;;;;;;;;;;;;;;3.97;82.55;95309.56;5053078;28;1017;-62
2023/03/24 02:21:59;;;;;;;;;;;;;;;3.88;83.80;95302.34;5044108;28;1294;-62
2023/03/24 02:24:51;;;;;;;;;;;;;;;3.89;83.05;95306.69;5043875;28;1601;-62
2023/03/24 02:27:26;;;;;;;;;;;;;;;3.65;83.68;95304.91;5037302;28;1265;-62
2023/03/24 02:29:55;;;;;;;;;;;;;;;3.83;83.85;95300.06;5053186;28;1037;-62
2023/03/24 02:32:21;;;;;;;;;;;;;;;3.97;83.71;95301.63;5052994;28;1061;-62
2023/03/24 02:34:59;;;;;;;;;;;;;;;3.86;83.29;95296.31;5052929;28;1113;-62
2023/03/24 02:37:28;;;;;;;;;;;;;;;3.70;83.94;95300.13;5053086;28;1906;-62
2023/03/24 02:40:01;;;;;;;;;;;;;;;3.50;85.39;95301.59;5052942;28;1125;-62
2023/03/24 02:42:46;;;;;;;;;;;;;;;3.47;86.29;95304.50;5052976;28;1033;-62
2023/03/24 02:45:32;;;;;;;;;;;;;;;3.78;84.27;95302.19;5053100;28;1056;-62
2023/03/24 02:48:18;;;;;;;;;;;;;;;3.94;83.88;95304.50;5053281;28;973;-62
2023/03/24 02:50:44;;;;;;;;;;;;;;;4.09;83.19;95308.63;5053002;28;965;-62
2023/03/24 02:53:17;;;;;;;;;;;;;;;4.09;83.06;95313.91;5053010;28;1036;-62
2023/03/24 02:55:49;;;;;;;;;;;;;;;4.09;82.38;95305.97;5053112;28;1040;-62
2023/03/24 02:58:26;;;;;;;;;;;;;;;4.05;83.14;95301.88;5052715;28;1918;-62
2023/03/24 03:01:04;;;;;;;;;;;;;;;3.85;82.30;95294.63;5051835;28;1008;-62
2023/03/24 03:03:37;;;;;;;;;;;;;;;3.46;83.77;95280.81;5052660;28;1152;-61
2023/03/24 03:06:03;;;;;;;;;;;;;;;3.28;85.02;95278.59;5053044;28;1059;-62
2023/03/24 03:08:32;;;;;;;;;;;;;;;3.29;85.88;95290.00;5051525;28;1030;-62
2023/03/24 03:11:00;;;;;;;;;;;;;;;3.53;85.92;95287.34;5052884;28;984;-62
2023/03/24 03:13:31;;;;;;;;;;;;;;;3.87;84.68;95285.63;5051747;28;1017;-62
2023/03/24 03:15:59;;;;;;;;;;;;;;;4.09;84.11;95291.91;5052573;28;1985;-62
2023/03/24 03:18:32;;;;;;;;;;;;;;;4.07;83.64;95289.38;5052415;28;1073;-62
2023/03/24 03:21:03;;;;;;;;;;;;;;;4.11;83.02;95274.94;5052801;28;966;-61
2023/03/24 03:23:33;;;;;;;;;;;;;;;3.96;82.93;95270.00;5052490;28;1537;-62
2023/03/24 03:26:03;;;;;;;;;;;;;;;3.62;84.59;95272.56;5051515;28;1129;-62
2023/03/24 03:28:31;;;;;;;;;;;;;;;3.50;85.73;95274.34;5052784;28;1077;-62
2023/03/24 03:31:00;;;;;;;;;;;;;;;3.68;85.18;95275.59;5052521;28;1131;-62
2023/03/24 03:33:32;;;;;;;;;;;;;;;3.97;84.90;95282.28;5052383;28;1100;-62
2023/03/24 03:36:01;;;;;;;;;;;;;;;4.13;84.08;95279.28;5054045;28;1923;-61
2023/03/24 03:38:33;;;;;;;;;;;;;;;4.08;84.62;95283.13;5056001;28;1034;-62
2023/03/24 03:41:01;;;;;;;;;;;;;;;4.11;84.95;95285.53;5056088;28;1029;-62
2023/03/24 03:43:29;;;;;;;;;;;;;;;4.20;84.67;95288.44;5055961;28;1022;-62
2023/03/24 03:45:55;;;;;;;;;;;;;;;4.33;84.03;95288.34;5056002;28;1033;-62
2023/03/24 03:48:25;;;;;;;;;;;;;;;4.21;84.13;95298.06;5056061;28;1047;-62
2023/03/24 03:50:51;;;;;;;;;;;;;;;4.16;83.64;95297.59;5055862;28;1706;-62
2023/03/24 03:53:20;;;;;;;;;;;;;;;4.00;83.47;95292.63;5055790;28;1136;-62
2023/03/24 03:55:46;;;;;;;;;;;;;;;4.01;84.22;95295.16;5055840;28;966;-62
2023/03/24 03:58:12;;;;;;;;;;;;;;;4.02;84.22;95298.63;5055596;28;1898;-62
2023/03/24 04:00:38;;;;;;;;;;;;;;;3.81;85.01;95298.47;5055958;28;1067;-62
2023/03/24 04:03:33;;;;;;;;;;;;;;;3.90;85.55;95297.78;5055744;28;977;-61
2023/03/24 04:06:12;;;;;;;;;;;;;;;4.03;85.13;95306.47;5018820;28;1550;-62
2023/03/24 04:08:56;;;;;;;;;;;;;;;4.16;84.80;95303.72;5054430;28;1251;-62
2023/03/24 04:11:33;;;;;;;;;;;;;;;4.17;83.33;95304.56;5055746;28;1277;-62
2023/03/24 04:14:11;;;;;;;;;;;;;;;4.20;83.94;95307.81;5055805;28;1054;-62
2023/03/24 04:16:40;;;;;;;;;;;;;;;4.17;84.07;95300.09;5055373;28;2003;-62
2023/03/24 04:19:35;;;;;;;;;;;;;;;3.91;83.69;95297.66;5055255;28;1088;-62
2023/03/24 04:22:20;;;;;;;;;;;;;;;3.75;84.68;95296.28;5046323;28;1217;-62
2023/03/24 04:24:55;;;;;;;;;;;;;;;3.91;84.97;95305.59;5053899;28;1672;-62
2023/03/24 04:27:39;;;;;;;;;;;;;;;3.91;84.42;95302.13;5055415;28;1008;-62
2023/03/24 04:30:21;;;;;;;;;;;;;;;3.97;84.71;95306.94;5055406;28;1032;-62
2023/03/24 04:32:50;;;;;;;;;;;;;;;4.01;84.23;95305.72;5053981;28;980;-62
2023/03/24 04:35:39;;;;;;;;;;;;;;;4.01;83.78;95311.03;5055278;28;1040;-62
2023/03/24 04:38:11;;;;;;;;;;;;;;;3.88;84.03;95312.91;5054963;28;1987;-61
2023/03/24 04:40:40;;;;;;;;;;;;;;;4.03;83.74;95324.13;5054901;28;1034;-62
2023/03/24 04:43:08;;;;;;;;;;;;;;;4.08;84.22;95322.84;5054865;28;1054;-62
2023/03/24 04:45:35;;;;;;;;;;;;;;;4.02;83.14;95318.03;5055105;28;1021;-62
2023/03/24 04:48:03;;;;;;;;;;;;;;;4.04;82.91;95323.16;5054284;28;1032;-62
2023/03/24 04:50:39;;;;;;;;;;;;;;;4.17;82.78;95325.72;5054815;28;972;-62
2023/03/24 04:53:06;;;;;;;;;;;;;;;4.36;82.81;95320.69;5055076;28;1036;-61
2023/03/24 04:55:50;;;;;;;;;;;;;;;4.46;82.86;95321.69;5054749;28;1035;-60
2023/03/24 04:58:17;;;;;;;;;;;;;;;4.33;81.80;95315.66;5054603;28;1910;-59
2023/03/24 05:00:44;;;;;;;;;;;;;;;4.48;82.05;95318.91;5054715;28;1033;-60
2023/03/24 05:03:12;;;;;;;;;;;;;;;4.80;81.51;95312.88;5054336;28;1101;-60
2023/03/24 05:05:43;;;;;;;;;;;;;;;5.04;80.87;95315.38;5054451;28;1061;-63
2023/03/24 05:08:09;;;;;;;;;;;;;;;5.06;80.32;95316.91;5054452;28;1108;-62
2023/03/24 05:10:36;;;;;;;;;;;;;;;5.16;80.51;95309.09;5054532;28;976;-62
2023/03/24 05:13:03;;;;;;;;;;;;;;;5.55;79.81;95314.75;5054476;28;1035;-63
2023/03/24 05:15:29;;;;;;;;;;;;;;;5.75;79.10;95320.22;5054154;28;1084;-64
2023/03/24 05:17:55;;;;;;;;;;;;;;;6.03;78.52;95326.75;5054389;28;1914;-62
2023/03/24 05:20:22;;;;;;;;;;;;;;;5.98;77.73;95332.44;5054262;28;961;-62
2023/03/24 05:22:48;;;;;;;;;;;;;;;5.86;78.69;95338.72;5052993;28;1016;-62
2023/03/24 05:25:14;;;;;;;;;;;;;;;5.95;79.33;95339.78;5053765;28;1526;-63
2023/03/24 05:27:41;;;;;;;;;;;;;;;5.98;79.28;95337.75;5054040;28;1037;-62
2023/03/24 05:30:07;;;;;;;;;;;;;;;5.87;78.39;95345.72;5054187;28;957;-63
2023/03/24 05:32:33;;;;;;;;;;;;;;;5.80;79.71;95337.44;5052816;28;993;-64
2023/03/24 05:35:01;;;;;;;;;;;;;;;6.12;79.87;95343.72;5053867;28;1033;-59
2023/03/24 05:37:27;;;;;;;;;;;;;;;6.41;77.83;95344.75;5053776;28;1974;-63
2023/03/24 05:39:53;;;;;;;;;;;;;;;6.73;77.44;95340.28;5054100;28;981;-64
2023/03/24 05:42:19;;;;;;;;;;;;;;;6.84;77.28;95338.38;5053662;28;1100;-63
2023/03/24 05:44:46;;;;;;;;;;;;;;;6.99;77.24;95349.50;5053746;28;1037;-64
2023/03/24 05:47:14;;;;;;;;;;;;;;;7.22;76.80;95350.13;5053825;28;981;-64
2023/03/24 05:49:41;;;;;;;;;;;;;;;7.56;75.37;95351.59;5053445;28;1324;-67
2023/03/24 05:52:08;;;;;;;;;;;;;;;7.81;74.54;95347.56;5053810;28;1048;-64
2023/03/24 05:54:35;;;;;;;;;;;;;;;7.93;73.38;95349.13;5053784;28;1007;-64
2023/03/24 05:57:01;;;;;;;;;;;;;;;8.16;73.17;95356.84;5053728;28;1914;-62
2023/03/24 05:59:28;;;;;;;;;;;;;;;8.57;73.67;95352.16;5052763;28;1092;-64
2023/03/24 06:01:57;;;;;;;;;;;;;;;8.89;71.24;95345.63;5053302;28;1029;-64
2023/03/24 06:04:23;;;;;;;;;;;;;;;9.11;69.63;95347.91;5053272;28;1034;-63
2023/03/24 06:06:49;;;;;;;;;;;;;;;9.03;71.17;95342.47;5053541;28;1017;-63
2023/03/24 06:09:15;;;;;;;;;;;;;;;9.06;70.47;95344.84;5053603;28;1374;-63
2023/03/24 06:11:42;;;;;;;;;;;;;;;9.55;68.55;95348.09;5053276;28;1070;-64
2023/03/24 06:14:08;;;;;;;;;;;;;;;9.45;68.01;95346.50;5052105;28;1029;-63
2023/03/24 06:16:37;;;;;;;;;;;;;;;9.73;67.41;95344.59;5053207;28;1910;-63
2023/03/24 06:19:05;;;;;;;;;;;;;;;10.28;66.70;95344.47;5052065;28;1049;-64
2023/03/24 06:24:55;;;;;;;;;;;;;;;10.31;65.14;95346.84;5053316;28;1523;-63
2023/03/24 06:27:24;;;;;;;;;;;;;;;10.49;66.65;95349.50;5053457;28;1024;-64
2023/03/24 06:29:52;;;;;;;;;;;;;;;10.83;64.24;95356.75;5053438;28;1100;-64
2023/03/24 06:32:18;;;;;;;;;;;;;;;10.75;63.54;95360.19;5052988;28;986;-64
2023/03/24 06:34:45;;;;;;;;;;;;;;;11.08;63.37;95356.91;5053052;28;1104;-65
2023/03/24 06:37:10;;;;;;;;;;;;;;;11.17;63.82;95355.94;5052874;28;1902;-64
2023/03/24 06:39:36;;;;;;;;;;;;;;;11.48;62.33;95361.59;5051918;28;1305;-65
2023/03/24 06:42:03;;;;;;;;;;;;;;;12.02;62.25;95344.34;5052729;28;969;-64
2023/03/24 06:44:29;;;;;;;;;;;;;;;11.89;59.84;95356.41;5052921;28;1047;-64
2023/03/24 06:46:55;;;;;;;;;;;;;;;12.70;59.17;95359.28;5051712;28;1083;-66
2023/03/24 06:49:21;;;;;;;;;;;;;;;12.80;58.23;95359.94;5052742;28;1029;-65
2023/03/24 06:51:47;;;;;;;;;;;;;;;12.92;57.33;95355.09;5053064;28;1028;-64
2023/03/24 06:54:13;;;;;;;;;;;;;;;13.06;56.33;95365.09;5052736;28;1139;-64
2023/03/24 06:56:40;;;;;;;;;;;;;;;13.21;57.35;95359.03;5051669;28;1989;-63
2023/03/24 06:59:06;;;;;;;;;;;;;;;13.07;58.24;95361.41;5052805;28;1037;-63
2023/03/24 07:01:34;;;;;;;;;;;;;;;13.44;56.26;95361.84;5052592;28;1049;-62
2023/03/24 07:04:00;;;;;;;;;;;;;;;13.59;55.11;95372.69;5052912;28;1059;-65
2023/03/24 07:06:26;;;;;;;;;;;;;;;13.51;56.34;95367.34;5052598;28;1080;-64
2023/03/24 07:08:52;;;;;;;;;;;;;;;13.93;54.05;95358.09;5052982;28;1042;-64
2023/03/24 07:11:18;;;;;;;;;;;;;;;13.93;54.24;95361.63;5056095;28;1065;-60
2023/03/24 07:13:44;;;;;;;;;;;;;;;14.42;53.94;95360.47;5056866;28;1032;-61
2023/03/24 07:16:10;;;;;;;;;;;;;;;14.69;53.01;95360.94;5056329;28;1979;-62
2023/03/24 07:18:36;;;;;;;;;;;;;;;14.32;53.00;95358.00;5056438;28;1000;-60
2023/03/24 07:21:02;;;;;;;;;;;;;;;14.23;53.97;95353.72;5056688;28;966;-61
2023/03/24 07:23:29;;;;;;;;;;;;;;;14.45;54.37;95357.41;5056471;28;1546;-57
2023/03/24 07:25:56;;;;;;;;;;;;;;;14.51;53.36;95359.34;5056302;28;1085;-67
2023/03/24 07:28:22;;;;;;;;;;;;;;;14.23;53.96;95357.22;5056549;28;1015;-66
2023/03/24 07:30:48;;;;;;;;;;;;;;;14.45;54.33;95358.25;5055386;28;969;-64
2023/03/24 07:33:14;;;;;;;;;;;;;;;14.41;52.73;95356.09;5056145;28;985;-61
2023/03/24 07:35:40;;;;;;;;;;;;;;;14.78;53.98;95362.56;5046423;28;2525;-60
2023/03/24 07:38:06;;;;;;;;;;;;;;;15.18;53.15;95361.31;5036419;28;2001;-64
2023/03/24 07:40:34;;;;;;;;;;;;;;;15.36;52.32;95358.25;5036456;28;977;-63
2023/03/24 07:43:01;;;;;;;;;;;;;;;15.42;50.79;95362.06;5036280;28;1051;-61
2023/03/24 07:45:27;;;;;;;;;;;;;;;15.47;50.93;95358.81;5036418;28;941;-64
2023/03/24 07:47:53;;;;;;;;;;;;;;;15.47;52.48;95354.25;5036069;28;1116;-62
2023/03/24 07:50:19;;;;;;;;;;;;;;;16.00;51.70;95349.56;5035874;28;1113;-63
2023/03/24 07:52:46;;;;;;;;;;;;;;;15.92;51.67;95354.25;5034749;28;1033;-58
2023/03/24 07:55:14;;;;;;;;;;;;;;;15.80;50.72;95359.25;5036056;28;1045;-61
2023/03/24 07:57:41;;;;;;;;;;;;;;;15.99;51.07;95353.28;5035782;28;1906;-61
2023/03/24 08:00:14;;;;;;;;;;;;;;;16.19;50.03;95355.38;5036105;28;1037;-60
2023/03/24 08:02:41;;;;;;;;;;;;;;;15.98;50.85;95350.78;5034830;28;973;-61
2023/03/24 08:05:09;;;;;;;;;;;;;;;16.22;49.66;95348.75;5035957;28;1118;-61
2023/03/24 08:07:35;;;;;;;;;;;;;;;16.27;49.29;95344.44;5035849;28;1224;-61
2023/03/24 08:10:02;;;;;;;;;;;;;;;16.26;50.78;95342.78;5035997;28;993;-61
2023/03/24 08:12:28;;;;;;;;;;;;;;;16.68;49.42;95346.50;5035692;28;978;-61
2023/03/24 08:14:54;;;;;;;;;;;;;;;16.93;47.42;95346.13;5035556;28;1133;-61
2023/03/24 08:17:20;;;;;;;;;;;;;;;16.67;47.11;95344.00;5035548;28;1910;-61
2023/03/24 08:19:47;;;;;;;;;;;;;;;17.01;48.21;95343.28;5035785;28;1023;-61
2023/03/24 08:22:13;;;;;;;;;;;;;;;17.18;47.25;95341.94;5034861;28;1063;-61
2023/03/24 08:24:39;;;;;;;;;;;;;;;17.20;48.19;95327.41;5048266;28;1578;-62
2023/03/24 08:27:09;;;;;;;;;;;;;;;17.38;48.09;95322.34;5055503;28;973;-61
2023/03/24 08:29:35;;;;;;;;;;;;;;;17.71;46.76;95332.47;5055193;28;1039;-62
2023/03/24 08:32:01;;;;;;;;;;;;;;;17.81;44.44;95330.22;5055361;28;1040;-62
2023/03/24 08:34:27;;;;;;;;;;;;;;;18.13;44.80;95322.47;5054961;28;1037;-62
2023/03/24 08:36:53;;;;;;;;;;;;;;;18.15;44.03;95317.66;5054983;28;1990;-61
2023/03/24 08:39:19;;;;;;;;;;;;;;;18.23;45.01;95319.34;5054928;28;985;-62
2023/03/24 08:41:45;;;;;;;;;;;;;;;17.95;44.43;95321.16;5054951;28;1155;-63
2023/03/24 08:44:12;;;;;;;;;;;;;;;18.13;45.11;95317.88;5054889;28;961;-62
2023/03/24 08:46:38;;;;;;;;;;;;;;;18.69;45.18;95316.72;5053959;28;957;-62
2023/03/24 08:49:05;;;;;;;;;;;;;;;19.07;43.75;95323.44;5055026;28;1190;-63
2023/03/24 08:51:31;;;;;;;;;;;;;;;18.86;43.29;95317.19;5053642;28;957;-62
2023/03/24 08:53:57;;;;;;;;;;;;;;;18.61;44.77;95303.41;5054399;28;965;-62
2023/03/24 08:56:24;;;;;;;;;;;;;;;18.53;43.15;95304.44;5054279;28;1938;-63
2023/03/24 08:58:52;;;;;;;;;;;;;;;19.06;43.08;95308.19;5054764;28;1004;-63
2023/03/24 09:01:21;;;;;;;;;;;;;;;19.46;41.89;95308.97;5054762;28;1012;-63
2023/03/24 09:03:47;;;;;;;;;;;;;;;19.59;41.45;95305.38;5054794;28;1024;-63
2023/03/24 09:06:14;;;;;;;;;;;;;;;19.70;44.11;95302.00;5054541;28;964;-64
2023/03/24 09:08:40;;;;;;;;;;;;;;;19.85;43.23;95292.81;5054613;28;973;-65
2023/03/24 09:11:12;;;;;;;;;;;;;;;19.98;43.09;95292.72;5054521;28;1032;-63
2023/03/24 09:13:38;;;;;;;;;;;;;;;20.03;43.35;95289.34;5054388;28;1057;-61
2023/03/24 09:16:04;;;;;;;;;;;;;;;19.98;44.28;95286.50;5054256;28;1045;-60
2023/03/24 09:18:30;;;;;;;;;;;;;;;20.23;42.69;95287.38;5052873;28;1929;-61
2023/03/24 09:20:57;;;;;;;;;;;;;;;20.24;43.50;95274.63;5054409;28;1044;-63
2023/03/24 09:23:23;;;;;;;;;;;;;;;20.56;42.32;95289.03;5054072;28;1582;-61
2023/03/24 09:25:50;;;;;;;;;;;;;;;19.83;41.07;95286.75;5054129;28;1334;-62
2023/03/24 09:28:16;;;;;;;;;;;;;;;19.60;43.41;95279.09;5052556;28;1179;-62
2023/03/24 09:30:42;;;;;;;;;;;;;;;20.00;44.45;95268.94;5054181;28;1024;-63
2023/03/24 09:33:08;;;;;;;;;;;;;;;20.48;42.88;95276.53;5052803;28;1112;-63
2023/03/24 09:35:34;;;;;;;;;;;;;;;20.57;43.72;95273.59;5054228;28;1035;-62
2023/03/24 09:38:00;;;;;;;;;;;;;;;20.39;42.00;95264.28;5053834;28;1898;-62
2023/03/24 09:40:28;;;;;;;;;;;;;;;20.28;42.81;95259.59;5054085;28;1051;-62
2023/03/24 09:42:59;;;;;;;;;;;;;;;20.44;43.26;95256.31;5053847;28;1040;-62
2023/03/24 09:45:26;;;;;;;;;;;;;;;20.72;43.03;95255.09;5053935;28;958;-63
2023/03/24 09:47:56;;;;;;;;;;;;;;;20.76;42.60;95255.50;5053656;28;1137;-63
2023/03/24 09:50:39;;;;;;;;;;;;;;;20.97;40.82;95248.81;5052735;28;1012;-63
2023/03/24 09:53:23;;;;;;;;;;;;;;;21.01;41.52;95248.13;5053582;28;1112;-63
2023/03/24 09:55:50;;;;;;;;;;;;;;;20.77;40.27;95251.72;5053856;28;1017;-62
2023/03/24 09:58:17;;;;;;;;;;;;;;;20.55;42.11;95241.22;5053544;28;1906;-63
2023/03/24 10:00:43;;;;;;;;;;;;;;;20.75;42.54;95232.06;5053331;28;1860;-62
2023/03/24 10:03:13;;;;;;;;;;;;;;;21.02;42.64;95224.53;5053482;28;1041;-63
2023/03/24 10:05:54;;;;;;;;;;;;;;;21.37;41.14;95226.66;5053258;28;1116;-63
2023/03/24 10:08:29;;;;;;;;;;;;;;;21.39;40.95;95224.53;5052239;28;1012;-63
2023/03/24 10:11:01;;;;;;;;;;;;;;;21.72;39.86;95218.72;5053424;28;965;-64
2023/03/24 10:13:39;;;;;;;;;;;;;;;21.70;39.49;95218.09;5053197;28;1061;-63
2023/03/24 10:16:12;;;;;;;;;;;;;;;21.58;41.08;95219.94;5053301;28;993;-63
2023/03/24 10:19:01;;;;;;;;;;;;;;;21.66;40.52;95210.63;5053331;28;1910;-63
2023/03/24 10:21:31;;;;;;;;;;;;;;;22.15;40.08;95208.72;5053336;28;1028;-64
2023/03/24 10:24:20;;;;;;;;;;;;;;;21.97;38.18;95209.59;5053411;28;1365;-64
2023/03/24 10:26:46;;;;;;;;;;;;;;;21.83;38.80;95201.63;5047510;28;1165;-63
2023/03/24 10:29:16;;;;;;;;;;;;;;;21.85;39.10;95195.94;5052940;28;1044;-64
2023/03/24 10:31:46;;;;;;;;;;;;;;;21.63;36.20;95204.59;5053133;28;1129;-66
2023/03/24 10:34:12;;;;;;;;;;;;;;;21.80;39.02;95195.81;5052952;28;1025;-63
2023/03/24 10:36:39;;;;;;;;;;;;;;;21.72;36.17;95201.56;5053071;28;2004;-64
2023/03/24 10:39:08;;;;;;;;;;;;;;;21.56;38.58;95192.13;5051780;28;1041;-65
2023/03/24 10:41:35;;;;;;;;;;;;;;;21.82;39.11;95183.63;5052960;28;1059;-62
2023/03/24 10:44:01;;;;;;;;;;;;;;;21.82;39.07;95177.38;5053058;28;1128;-63
2023/03/24 10:46:30;;;;;;;;;;;;;;;21.73;37.12;95178.75;5057174;28;968;-62
2023/03/24 10:49:07;;;;;;;;;;;;;;;21.74;35.32;95181.25;5057218;28;961;-62
2023/03/24 10:51:33;;;;;;;;;;;;;;;21.82;37.01;95177.38;5056917;28;1054;-64
2023/03/24 10:54:09;;;;;;;;;;;;;;;21.75;34.79;95177.44;5057030;28;958;-64
2023/03/24 10:56:43;;;;;;;;;;;;;;;21.91;35.00;95170.53;5057202;28;1968;-65
2023/03/24 10:59:19;;;;;;;;;;;;;;;22.13;35.28;95168.09;5057119;28;993;-64
2023/03/24 11:01:45;;;;;;;;;;;;;;;21.69;32.94;95172.91;5056883;28;1120;-65
2023/03/24 11:04:14;;;;;;;;;;;;;;;21.58;35.37;95160.91;5056712;28;953;-65
2023/03/24 11:06:53;;;;;;;;;;;;;;;21.62;35.83;95150.41;5056721;28;1029;-65
2023/03/24 11:09:21;;;;;;;;;;;;;;;21.81;36.44;95145.75;5056711;28;1037;-65
2023/03/24 11:11:48;;;;;;;;;;;;;;;21.82;35.37;95145.53;5057002;28;1027;-65
2023/03/24 11:14:21;;;;;;;;;;;;;;;21.68;33.20;95145.94;5055481;28;1107;-65
2023/03/24 11:16:47;;;;;;;;;;;;;;;21.84;35.83;95135.22;5056429;28;1902;-65
2023/03/24 11:19:18;;;;;;;;;;;;;;;22.08;37.16;95129.03;5056741;28;1053;-65
2023/03/24 11:21:45;;;;;;;;;;;;;;;22.10;36.31;95121.44;5056712;28;969;-65
2023/03/24 11:24:14;;;;;;;;;;;;;;;22.11;35.47;95128.56;5056418;28;1675;-65
2023/03/24 11:26:44;;;;;;;;;;;;;;;22.01;33.28;95131.84;5056289;28;1081;-67
2023/03/24 11:29:21;;;;;;;;;;;;;;;21.73;30.05;95136.03;5056424;28;993;-67
2023/03/24 11:32:04;;;;;;;;;;;;;;;21.48;31.45;95132.63;5056417;28;1020;-68
2023/03/24 11:34:33;;;;;;;;;;;;;;;21.50;32.03;95114.19;5056250;28;1046;-59
2023/03/24 11:37:10;;;;;;;;;;;;;;;21.73;34.41;95108.81;5056340;28;1983;-59
2023/03/24 11:39:37;;;;;;;;;;;;;;;21.92;35.84;95095.97;5056374;28;993;-67
2023/03/24 11:42:09;;;;;;;;;;;;;;;21.88;33.80;95089.34;5056231;28;978;-66
2023/03/24 11:44:37;;;;;;;;;;;;;;;21.92;32.95;95095.16;5056372;28;973;-66
2023/03/24 11:47:16;;;;;;;;;;;;;;;21.91;31.87;95091.59;5056263;28;1025;-66
2023/03/24 11:49:45;;;;;;;;;;;;;;;21.75;30.86;95097.72;5056055;28;1328;-67
2023/03/24 11:52:35;;;;;;;;;;;;;;;21.85;28.12;95095.22;5056016;28;1052;-67
2023/03/24 11:55:02;;;;;;;;;;;;;;;21.57;28.18;95095.84;5046995;28;1142;-67
2023/03/24 11:57:40;;;;;;;;;;;;;;;21.78;30.07;95089.91;5054946;28;1997;-67
2023/03/24 12:00:27;;;;;;;;;;;;;;;21.89;31.02;95074.66;5056111;28;1033;-67
2023/03/24 12:03:02;;;;;;;;;;;;;;;22.08;30.51;95077.28;5048513;28;1351;-68
2023/03/24 12:05:40;;;;;;;;;;;;;;;22.16;30.16;95072.34;5054734;28;993;-68
2023/03/24 12:08:25;;;;;;;;;;;;;;;22.04;31.11;95071.47;5055736;28;981;-68
2023/03/24 12:11:10;;;;;;;;;;;;;;;21.97;31.55;95066.16;5055972;28;1044;-68
2023/03/24 12:13:39;;;;;;;;;;;;;;;22.03;32.02;95058.94;5055525;28;1020;-67
2023/03/24 12:16:14;;;;;;;;;;;;;;;21.80;30.66;95062.47;5054252;28;961;-67
2023/03/24 12:18:50;;;;;;;;;;;;;;;21.89;32.57;95041.16;5055624;28;1906;-62
2023/03/24 12:21:35;;;;;;;;;;;;;;;21.98;30.49;95046.03;5055416;28;1049;-65
2023/03/24 12:24:10;;;;;;;;;;;;;;;22.11;31.67;95030.56;5055522;28;1544;-66
2023/03/24 12:26:37;;;;;;;;;;;;;;;22.11;31.79;95027.81;5054165;28;1264;-67
2023/03/24 12:29:16;;;;;;;;;;;;;;;22.10;31.43;95029.72;5055602;28;1036;-66
2023/03/24 12:31:42;;;;;;;;;;;;;;;21.88;30.42;95025.91;5054083;28;1043;-66
2023/03/24 12:34:11;;;;;;;;;;;;;;;21.79;31.13;95017.25;5055420;28;1031;-66
2023/03/24 12:36:53;;;;;;;;;;;;;;;21.86;31.21;95012.53;5053854;28;1993;-67
2023/03/24 12:39:28;;;;;;;;;;;;;;;22.09;31.77;95014.44;5055220;28;1657;-66
2023/03/24 12:41:54;;;;;;;;;;;;;;;22.05;29.18;95012.44;5053515;28;1045;-66
2023/03/24 12:44:23;;;;;;;;;;;;;;;21.97;30.64;95005.47;5054881;28;1030;-66
2023/03/24 12:46:52;;;;;;;;;;;;;;;22.05;30.82;95010.53;5054850;28;957;-66
2023/03/24 12:49:18;;;;;;;;;;;;;;;21.85;30.14;95002.69;5055093;28;985;-67
2023/03/24 12:51:56;;;;;;;;;;;;;;;21.72;29.59;95008.38;5055016;28;973;-66
2023/03/24 12:54:40;;;;;;;;;;;;;;;21.85;30.82;94997.25;5053934;28;1059;-66
2023/03/24 12:57:09;;;;;;;;;;;;;;;21.86;29.95;94990.78;5054649;28;1993;-66
2023/03/24 12:59:44;;;;;;;;;;;;;;;21.72;29.61;94990.16;5054650;28;1097;-67
2023/03/24 13:02:25;;;;;;;;;;;;;;;21.70;30.83;94989.56;5054771;28;1045;-67
2023/03/24 13:04:54;;;;;;;;;;;;;;;21.85;31.02;94980.94;5054854;28;1065;-66
2023/03/24 13:07:24;;;;;;;;;;;;;;;21.94;31.20;94974.06;5054278;28;1043;-67
2023/03/24 13:09:52;;;;;;;;;;;;;;;22.03;29.92;94977.28;5054437;28;1021;-62
2023/03/24 13:12:39;;;;;;;;;;;;;;;22.08;28.04;94971.94;5054347;28;1100;-63
2023/03/24 13:15:11;;;;;;;;;;;;;;;22.21;29.98;94969.00;5054545;28;1021;-67
2023/03/24 13:17:50;;;;;;;;;;;;;;;22.29;28.95;94965.13;5054173;28;1914;-67
2023/03/24 13:20:21;;;;;;;;;;;;;;;22.31;28.88;94968.41;5054215;28;965;-65
2023/03/24 13:22:47;;;;;;;;;;;;;;;22.17;28.23;94967.78;5054605;28;1020;-68